createdAt,value
2019-02-27T00:01:30.183Z,1.00
2019-02-27T00:04:21.062Z,1.00
2019-02-27T00:07:15.772Z,1.10
2019-02-27T00:10:06.119Z,0.90
2019-02-27T00:16:11.817Z,0.80
2019-02-27T00:18:59.537Z,0.90
2019-02-27T00:21:49.886Z,0.90
2019-02-27T00:24:39.635Z,0.80
2019-02-27T00:27:28.624Z,0.80
2019-02-27T00:30:24.856Z,0.80
2019-02-27T00:36:29.742Z,0.90
2019-02-27T00:39:18.021Z,0.90
2019-02-27T00:42:33.317Z,0.90
2019-02-27T00:45:20.669Z,0.80
2019-02-27T00:48:12.239Z,0.80
2019-02-27T00:51:15.487Z,0.80
2019-02-27T00:54:03.703Z,0.90
2019-02-27T00:56:59.690Z,0.70
2019-02-27T00:59:47.916Z,0.60
2019-02-27T01:02:37.194Z,0.70
2019-02-27T01:05:25.148Z,0.60
2019-02-27T01:08:29.356Z,0.70
2019-02-27T01:11:23.159Z,0.60
2019-02-27T01:14:11.883Z,0.60
2019-02-27T01:17:20.922Z,0.50
2019-02-27T01:20:11.400Z,0.50
2019-02-27T01:23:05.001Z,0.50
2019-02-27T01:26:06.399Z,0.50
2019-02-27T01:28:54.141Z,0.50
2019-02-27T01:31:45.246Z,0.50
2019-02-27T01:34:37.942Z,0.40
2019-02-27T01:37:39.723Z,0.50
2019-02-27T01:40:28.090Z,0.40
2019-02-27T01:43:20.378Z,0.30
2019-02-27T01:46:18.836Z,0.30
2019-02-27T01:49:16.790Z,0.20
2019-02-27T01:51:56.184Z,0.10
2019-02-27T01:54:49.005Z,0.00
2019-02-27T01:57:40.910Z,0.00
2019-02-27T02:00:30.380Z,-0.10
2019-02-27T02:03:52.809Z,-0.10
2019-02-27T02:06:32.921Z,-0.10
2019-02-27T02:09:44.068Z,-0.10
2019-02-27T02:12:36.393Z,-0.10
2019-02-27T02:16:06.018Z,-0.10
2019-02-27T02:19:34.119Z,-0.20
2019-02-27T02:23:07.517Z,-0.20
2019-02-27T02:26:25.463Z,-0.30
2019-02-27T02:30:01.370Z,-0.30
2019-02-27T02:33:30.487Z,-0.40
2019-02-27T02:36:46.570Z,-0.30
2019-02-27T02:40:18.663Z,-0.20
2019-02-27T02:44:03.187Z,-0.30
2019-02-27T02:47:41.841Z,-0.40
2019-02-27T02:51:16.869Z,-0.40
2019-02-27T02:54:47.611Z,-0.30
2019-02-27T02:58:33.435Z,-0.30
2019-02-27T03:01:34.509Z,-0.30
2019-02-27T03:04:54.747Z,-0.40
2019-02-27T03:08:20.206Z,-0.50
2019-02-27T03:11:54.582Z,-0.50
2019-02-27T03:15:28.431Z,-0.60
2019-02-27T03:18:55.608Z,-0.70
2019-02-27T03:22:07.582Z,-0.90
2019-02-27T03:25:40.854Z,-0.90
2019-02-27T03:29:16.969Z,-0.90
2019-02-27T03:32:19.029Z,-0.90
2019-02-27T03:35:43.469Z,-0.80
2019-02-27T03:39:12.022Z,-0.80
2019-02-27T03:43:01.504Z,-0.80
2019-02-27T03:46:11.261Z,-0.80
2019-02-27T03:49:15.479Z,-0.80
2019-02-27T03:52:40.178Z,-0.90
2019-02-27T03:55:56.001Z,-1.00
2019-02-27T03:59:42.466Z,-1.00
2019-02-27T04:03:09.748Z,-1.00
2019-02-27T04:06:25.485Z,-1.00
2019-02-27T04:09:18.553Z,-0.90
2019-02-27T04:12:02.807Z,-0.90
2019-02-27T04:14:50.781Z,-0.80
2019-02-27T04:17:36.769Z,-0.80
2019-02-27T04:20:24.387Z,-0.80
2019-02-27T04:23:12.827Z,-1.00
2019-02-27T04:26:05.439Z,-1.00
2019-02-27T04:28:49.119Z,-1.10
2019-02-27T04:31:36.470Z,-1.20
2019-02-27T04:34:24.138Z,-1.30
2019-02-27T04:37:11.265Z,-1.30
2019-02-27T04:39:58.568Z,-1.30
2019-02-27T04:42:46.258Z,-1.40
2019-02-27T04:45:33.899Z,-1.40
2019-02-27T04:48:21.422Z,-1.40
2019-02-27T04:51:08.904Z,-1.30
2019-02-27T04:53:56.434Z,-1.30
2019-02-27T04:56:44.120Z,-1.40
2019-02-27T04:59:31.700Z,-1.50
2019-02-27T05:02:19.390Z,-1.60
2019-02-27T05:05:08.596Z,-1.50
2019-02-27T05:07:56.553Z,-1.60
2019-02-27T05:10:43.953Z,-1.60
2019-02-27T05:13:34.457Z,-1.60
2019-02-27T05:16:22.943Z,-1.60
2019-02-27T05:19:11.306Z,-1.70
2019-02-27T05:21:58.810Z,-1.80
2019-02-27T05:24:45.938Z,-1.70
2019-02-27T05:27:33.120Z,-1.70
2019-02-27T05:30:20.579Z,-1.60
2019-02-27T05:33:07.723Z,-1.60
2019-02-27T05:35:57.282Z,-1.60
2019-02-27T05:38:44.237Z,-1.50
2019-02-27T05:41:33.183Z,-1.70
2019-02-27T05:44:22.151Z,-1.60
2019-02-27T05:47:11.186Z,-1.60
2019-02-27T05:50:00.474Z,-1.70
2019-02-27T05:52:48.750Z,-1.70
2019-02-27T05:55:39.183Z,-1.80
2019-02-27T05:58:26.556Z,-1.90
2019-02-27T06:01:14.332Z,-1.90
2019-02-27T06:04:02.358Z,-1.90
2019-02-27T06:06:49.848Z,-1.80
2019-02-27T06:09:37.729Z,-1.80
2019-02-27T06:12:25.128Z,-1.70
2019-02-27T06:15:14.761Z,-1.70
2019-02-27T06:18:06.197Z,-1.70
2019-02-27T06:20:53.245Z,-1.60
2019-02-27T06:23:40.670Z,-1.60
2019-02-27T06:26:32.204Z,-1.60
2019-02-27T06:29:17.311Z,-1.60
2019-02-27T06:32:04.771Z,-1.60
2019-02-27T06:34:52.058Z,-1.60
2019-02-27T06:37:39.411Z,-1.70
2019-02-27T06:40:27.373Z,-1.70
2019-02-27T06:43:14.750Z,-1.60
2019-02-27T06:46:02.093Z,-1.60
2019-02-27T06:48:49.706Z,-1.60
2019-02-27T06:51:37.688Z,-1.60
2019-02-27T06:54:25.226Z,-1.40
2019-02-27T06:57:12.906Z,-1.30
2019-02-27T07:00:03.023Z,-1.10
2019-02-27T07:02:55.222Z,-1.00
2019-02-27T07:05:40.144Z,-1.10
2019-02-27T07:08:27.820Z,-1.10
2019-02-27T07:11:15.470Z,-1.00
2019-02-27T07:14:03.275Z,-0.90
2019-02-27T07:16:50.873Z,-0.70
2019-02-27T07:19:38.512Z,-0.50
2019-02-27T07:22:25.642Z,-0.40
2019-02-27T07:25:13.420Z,-0.20
2019-02-27T07:28:00.994Z,0.40
2019-02-27T07:30:48.321Z,1.20
2019-02-27T07:33:38.018Z,1.80
2019-02-27T07:36:24.511Z,2.50
2019-02-27T07:39:12.007Z,2.90
2019-02-27T07:41:59.149Z,3.10
2019-02-27T07:44:47.020Z,3.00
2019-02-27T07:47:34.461Z,3.10
2019-02-27T07:50:22.374Z,3.80
2019-02-27T07:53:10.106Z,4.60
2019-02-27T07:55:57.945Z,5.50
2019-02-27T07:58:45.310Z,5.20
2019-02-27T08:01:32.755Z,4.80
2019-02-27T08:04:22.833Z,5.30
2019-02-27T08:07:10.011Z,5.20
2019-02-27T08:10:00.779Z,5.30
2019-02-27T08:12:48.090Z,6.40
2019-02-27T08:15:35.280Z,6.40
2019-02-27T08:18:29.821Z,6.20
2019-02-27T08:21:12.008Z,6.00
2019-02-27T08:23:59.600Z,6.20
2019-02-27T08:26:46.863Z,6.50
2019-02-27T08:29:34.768Z,6.90
2019-02-27T08:32:22.155Z,7.50
2019-02-27T08:35:09.646Z,7.20
2019-02-27T08:38:02.569Z,7.30
2019-02-27T08:40:46.659Z,7.20
2019-02-27T08:43:34.123Z,7.30
2019-02-27T08:46:21.489Z,7.60
2019-02-27T08:49:08.614Z,7.40
2019-02-27T08:51:56.033Z,7.30
2019-02-27T08:54:43.180Z,7.40
2019-02-27T08:57:30.797Z,7.80
2019-02-27T09:00:20.029Z,8.00
2019-02-27T09:03:07.773Z,8.20
2019-02-27T09:05:55.219Z,8.80
2019-02-27T09:08:44.061Z,9.50
2019-02-27T09:11:32.006Z,9.80
2019-02-27T09:14:19.803Z,9.90
2019-02-27T09:17:07.792Z,10.50
2019-02-27T09:19:55.012Z,10.30
2019-02-27T09:22:42.839Z,9.90
2019-02-27T09:25:30.498Z,11.40
2019-02-27T09:28:17.794Z,12.20
2019-02-27T09:31:05.402Z,11.90
2019-02-27T09:33:53.901Z,11.70
2019-02-27T09:36:43.279Z,11.30
2019-02-27T09:39:31.405Z,11.50
2019-02-27T09:42:19.781Z,11.10
2019-02-27T09:45:17.418Z,10.90
2019-02-27T09:48:05.084Z,11.10
2019-02-27T09:50:52.566Z,12.30
2019-02-27T09:53:40.353Z,12.30
2019-02-27T09:56:29.223Z,11.60
2019-02-27T09:59:19.675Z,12.00
2019-02-27T10:02:09.274Z,12.40
2019-02-27T10:05:01.620Z,12.40
2019-02-27T10:07:45.700Z,12.90
2019-02-27T10:10:33.514Z,13.10
2019-02-27T10:13:21.181Z,12.80
2019-02-27T10:16:08.909Z,12.60
2019-02-27T10:18:56.739Z,12.80
2019-02-27T10:21:45.345Z,13.00
2019-02-27T10:24:33.269Z,13.50
2019-02-27T10:27:20.705Z,13.50
2019-02-27T10:30:11.473Z,13.70
2019-02-27T10:32:57.486Z,13.60
2019-02-27T10:35:44.852Z,13.90
2019-02-27T10:38:32.708Z,13.80
2019-02-27T10:41:20.200Z,14.10
2019-02-27T10:44:07.354Z,14.50
2019-02-27T10:46:57.300Z,14.70
2019-02-27T10:49:43.859Z,15.20
2019-02-27T10:52:31.239Z,15.10
2019-02-27T10:55:18.378Z,15.10
2019-02-27T10:58:07.668Z,15.10
2019-02-27T11:00:55.356Z,15.30
2019-02-27T11:03:42.895Z,15.10
2019-02-27T11:06:33.900Z,15.80
2019-02-27T11:09:29.218Z,15.50
2019-02-27T11:12:16.913Z,15.70
2019-02-27T11:15:08.174Z,16.00
2019-02-27T11:17:55.692Z,16.70
2019-02-27T11:20:45.064Z,17.20
2019-02-27T11:23:32.687Z,18.00
2019-02-27T11:26:19.955Z,18.00
2019-02-27T11:29:07.416Z,17.60
2019-02-27T11:31:55.005Z,17.70
2019-02-27T11:34:42.547Z,18.00
2019-02-27T11:37:30.206Z,18.00
2019-02-27T11:40:22.267Z,17.90
2019-02-27T11:43:09.655Z,18.20
2019-02-27T11:45:58.168Z,18.40
2019-02-27T11:48:46.479Z,18.70
2019-02-27T11:51:34.335Z,18.70
2019-02-27T11:54:21.659Z,18.50
2019-02-27T11:57:09.338Z,18.10
2019-02-27T11:59:57.068Z,18.60
2019-02-27T12:02:44.549Z,19.00
2019-02-27T12:05:34.287Z,18.90
2019-02-27T12:08:22.423Z,19.20
2019-02-27T12:11:13.372Z,20.30
2019-02-27T12:13:59.535Z,20.00
2019-02-27T12:16:48.618Z,19.70
2019-02-27T12:19:36.595Z,20.00
2019-02-27T12:22:23.724Z,20.40
2019-02-27T12:25:12.596Z,20.50
2019-02-27T12:28:01.073Z,20.70
2019-02-27T12:30:48.752Z,20.20
2019-02-27T12:33:36.546Z,20.50
2019-02-27T12:36:23.978Z,21.00
2019-02-27T12:39:15.187Z,20.50
2019-02-27T12:42:00.540Z,21.00
2019-02-27T12:44:47.924Z,20.60
2019-02-27T12:47:37.626Z,20.50
2019-02-27T12:50:27.002Z,21.30
2019-02-27T12:53:14.339Z,21.60
2019-02-27T12:56:01.901Z,22.00
2019-02-27T12:58:49.321Z,22.50
2019-02-27T13:01:37.225Z,22.90
2019-02-27T13:04:24.761Z,22.30
2019-02-27T13:07:12.243Z,22.20
2019-02-27T13:09:59.451Z,22.40
2019-02-27T13:12:49.181Z,22.40
2019-02-27T13:15:38.332Z,22.50
2019-02-27T13:18:25.433Z,22.60
2019-02-27T13:21:13.055Z,22.90
2019-02-27T13:24:01.045Z,22.90
2019-02-27T13:26:48.385Z,22.80
2019-02-27T13:29:36.042Z,23.80
2019-02-27T13:32:26.558Z,24.30
2019-02-27T13:35:13.249Z,24.90
2019-02-27T13:38:00.769Z,24.60
2019-02-27T13:40:48.381Z,24.80
2019-02-27T13:43:36.269Z,25.20
2019-02-27T13:46:23.758Z,25.40
2019-02-27T13:49:11.380Z,25.30
2019-02-27T13:52:00.064Z,25.80
2019-02-27T13:54:47.937Z,25.40
2019-02-27T13:57:35.373Z,25.80
2019-02-27T14:00:25.962Z,26.80
2019-02-27T14:03:13.534Z,27.00
2019-02-27T14:06:00.933Z,27.40
2019-02-27T14:08:48.825Z,28.50
2019-02-27T14:11:36.302Z,29.00
2019-02-27T14:14:24.471Z,29.00
2019-02-27T14:17:12.821Z,29.30
2019-02-27T14:20:05.264Z,29.40
2019-02-27T14:22:53.638Z,29.70
2019-02-27T14:25:41.844Z,30.20
2019-02-27T14:28:38.459Z,30.10
2019-02-27T14:31:27.222Z,30.40
2019-02-27T14:34:27.119Z,30.20
2019-02-27T14:37:19.380Z,29.90
2019-02-27T14:40:17.413Z,29.80
2019-02-27T14:43:11.273Z,30.60
2019-02-27T14:46:01.965Z,31.30
2019-02-27T14:48:52.413Z,30.60
2019-02-27T14:51:41.200Z,31.10
2019-02-27T14:54:29.117Z,30.90
2019-02-27T14:57:17.160Z,30.40
2019-02-27T15:00:06.530Z,30.10
2019-02-27T15:03:06.497Z,30.40
2019-02-27T15:06:04.455Z,31.10
2019-02-27T15:08:57.914Z,30.70
2019-02-27T15:11:49.457Z,30.70
2019-02-27T15:14:41.694Z,31.70
2019-02-27T15:18:02.792Z,31.60
2019-02-27T15:21:04.973Z,31.90
2019-02-27T15:23:58.134Z,31.20
2019-02-27T15:26:55.072Z,31.30
2019-02-27T15:29:44.766Z,31.30
2019-02-27T15:32:36.576Z,31.00
2019-02-27T15:35:43.262Z,31.10
2019-02-27T15:38:37.849Z,30.10
2019-02-27T15:42:09.644Z,30.50
2019-02-27T15:45:10.000Z,30.90
2019-02-27T15:47:57.665Z,31.20
2019-02-27T15:51:32.315Z,30.90
2019-02-27T15:54:24.712Z,30.30
2019-02-27T15:57:23.450Z,30.20
2019-02-27T16:00:19.375Z,29.80
2019-02-27T16:03:23.026Z,29.80
2019-02-27T16:06:15.732Z,29.50
2019-02-27T16:09:05.068Z,29.00
2019-02-27T16:11:52.761Z,27.70
2019-02-27T16:14:42.878Z,26.40
2019-02-27T16:17:31.402Z,24.80
2019-02-27T16:20:19.541Z,23.60
2019-02-27T16:23:06.981Z,22.60
2019-02-27T16:25:56.499Z,22.30
2019-02-27T16:28:46.168Z,21.80
2019-02-27T16:31:34.053Z,21.30
2019-02-27T16:34:21.625Z,20.80
2019-02-27T16:37:09.138Z,20.60
2019-02-27T16:39:57.002Z,20.20
2019-02-27T16:42:44.493Z,19.80
2019-02-27T16:45:34.784Z,19.60
2019-02-27T16:48:21.520Z,19.20
2019-02-27T16:51:09.153Z,18.70
2019-02-27T16:53:57.781Z,18.30
2019-02-27T16:56:47.629Z,17.80
2019-02-27T16:59:34.235Z,17.20
2019-02-27T17:02:21.841Z,16.80
2019-02-27T17:05:10.181Z,16.50
2019-02-27T17:08:00.949Z,15.90
2019-02-27T17:10:51.252Z,15.50
2019-02-27T17:13:35.682Z,15.10
2019-02-27T17:16:22.784Z,14.80
2019-02-27T17:19:09.926Z,14.50
2019-02-27T17:21:58.840Z,14.00
2019-02-27T17:24:46.144Z,13.70
2019-02-27T17:30:02.574Z,13.50
2019-02-27T17:32:50.460Z,12.50
2019-02-27T17:35:38.217Z,12.20
2019-02-27T17:38:25.794Z,11.90
2019-02-27T17:41:13.405Z,11.60
2019-02-27T17:44:05.106Z,11.60
2019-02-27T17:46:51.714Z,11.50
2019-02-27T17:49:40.102Z,11.30
2019-02-27T17:52:27.492Z,11.00
2019-02-27T17:55:15.072Z,11.00
2019-02-27T17:58:02.152Z,10.70
2019-02-27T18:00:51.867Z,10.50
2019-02-27T18:03:41.610Z,10.50
2019-02-27T18:06:28.239Z,10.20
2019-02-27T18:09:15.833Z,9.80
2019-02-27T18:12:03.160Z,9.70
2019-02-27T18:14:50.544Z,9.70
2019-02-27T18:17:38.246Z,9.50
2019-02-27T18:20:25.797Z,9.50
2019-02-27T18:23:13.102Z,9.30
2019-02-27T18:26:00.488Z,9.20
2019-02-27T18:28:48.285Z,8.90
2019-02-27T18:31:35.932Z,8.90
2019-02-27T18:34:23.408Z,8.80
2019-02-27T18:37:11.004Z,8.70
2019-02-27T18:39:58.117Z,8.40
2019-02-27T18:42:46.207Z,8.20
2019-02-27T18:45:33.982Z,8.20
2019-02-27T18:48:21.817Z,8.20
2019-02-27T18:51:09.279Z,8.20
2019-02-27T18:53:56.681Z,8.20
2019-02-27T18:56:44.390Z,8.20
2019-02-27T18:59:31.706Z,7.90
2019-02-27T19:02:20.643Z,7.90
2019-02-27T19:05:08.584Z,7.80
2019-02-27T19:07:55.944Z,7.60
2019-02-27T19:10:43.677Z,7.30
2019-02-27T19:13:32.327Z,7.20
2019-02-27T19:16:20.733Z,7.20
2019-02-27T19:19:09.055Z,7.20
2019-02-27T19:22:19.195Z,7.10
2019-02-27T19:25:06.535Z,7.10
2019-02-27T19:27:54.572Z,7.00
2019-02-27T19:31:06.253Z,6.90
2019-02-27T19:33:54.510Z,6.90
2019-02-27T19:36:42.246Z,6.70
2019-02-27T19:39:31.815Z,6.70
2019-02-27T19:42:19.861Z,6.60
2019-02-27T19:45:09.554Z,6.60
2019-02-27T19:47:56.778Z,6.50
2019-02-27T19:50:46.286Z,6.30
2019-02-27T19:53:39.420Z,6.10
2019-02-27T19:56:23.918Z,6.10
2019-02-27T19:59:11.663Z,6.10
2019-02-27T20:01:59.001Z,5.90
2019-02-27T20:04:50.633Z,5.90
2019-02-27T20:07:38.138Z,6.00
2019-02-27T20:10:30.166Z,5.60
2019-02-27T20:13:28.846Z,5.50
2019-02-27T20:16:20.108Z,5.50
2019-02-27T20:19:05.782Z,5.30
2019-02-27T20:21:54.209Z,5.30
2019-02-27T20:24:43.135Z,5.10
2019-02-27T20:27:31.771Z,5.00
2019-02-27T20:30:22.551Z,5.00
2019-02-27T20:33:13.642Z,5.00
2019-02-27T20:36:01.098Z,5.00
2019-02-27T20:38:50.835Z,4.90
2019-02-27T20:41:41.106Z,4.90
2019-02-27T20:44:27.682Z,4.90
2019-02-27T20:47:21.819Z,4.80
2019-02-27T20:50:08.998Z,4.50
2019-02-27T20:52:57.711Z,4.20
2019-02-27T20:55:45.177Z,4.20
2019-02-27T20:58:32.851Z,4.40
2019-02-27T21:01:20.193Z,4.40
2019-02-27T21:04:08.004Z,4.30
2019-02-27T21:06:56.241Z,4.20
2019-02-27T21:09:45.152Z,4.10
2019-02-27T21:12:33.613Z,4.00
2019-02-27T21:15:21.176Z,4.00
2019-02-27T21:18:08.650Z,4.10
2019-02-27T21:20:55.959Z,4.10
2019-02-27T21:23:43.797Z,3.80
2019-02-27T21:26:32.942Z,3.70
2019-02-27T21:29:20.527Z,3.40
2019-02-27T21:32:07.949Z,3.30
2019-02-27T21:34:55.960Z,3.30
2019-02-27T21:37:45.525Z,3.40
2019-02-27T21:40:33.359Z,3.50
2019-02-27T21:43:25.269Z,3.50
2019-02-27T21:46:12.616Z,3.50
2019-02-27T21:48:59.892Z,3.40
2019-02-27T21:51:48.876Z,3.20
2019-02-27T21:54:39.311Z,3.20
2019-02-27T21:57:26.280Z,3.10
2019-02-27T22:00:18.028Z,2.80
2019-02-27T22:03:05.988Z,2.90
2019-02-27T22:05:53.775Z,2.90
2019-02-27T22:08:41.335Z,2.90
2019-02-27T22:11:29.036Z,2.90
2019-02-27T22:14:17.703Z,2.70
2019-02-27T22:17:05.966Z,2.50
2019-02-27T22:19:53.797Z,2.50
2019-02-27T22:22:42.369Z,2.30
2019-02-27T22:25:31.226Z,2.30
2019-02-27T22:28:19.962Z,2.30
2019-02-27T22:31:08.315Z,2.40
2019-02-27T22:33:56.172Z,2.50
2019-02-27T22:36:45.124Z,2.40
2019-02-27T22:39:32.986Z,2.40
2019-02-27T22:42:20.627Z,2.40
2019-02-27T22:45:09.168Z,2.40
2019-02-27T22:47:57.597Z,2.50
2019-02-27T22:50:45.193Z,2.50
2019-02-27T22:53:32.798Z,2.40
2019-02-27T22:56:20.133Z,2.30
2019-02-27T22:59:07.576Z,2.30
2019-02-27T23:01:55.693Z,2.30
2019-02-27T23:04:43.266Z,2.20
2019-02-27T23:07:30.968Z,2.10
2019-02-27T23:10:18.887Z,2.00
2019-02-27T23:13:12.448Z,1.70
2019-02-27T23:15:58.876Z,1.70
2019-02-27T23:18:46.621Z,1.80
2019-02-27T23:21:34.381Z,1.70
2019-02-27T23:24:22.350Z,1.60
2019-02-27T23:27:09.427Z,1.50
2019-02-27T23:29:56.518Z,1.50
2019-02-27T23:32:44.281Z,1.40
2019-02-27T23:35:32.434Z,1.40
2019-02-27T23:38:20.023Z,1.40
2019-02-27T23:41:07.504Z,1.50
2019-02-27T23:43:54.596Z,1.50
2019-02-27T23:46:48.798Z,1.40
2019-02-27T23:49:31.229Z,1.50
2019-02-27T23:52:19.338Z,1.30
2019-02-27T23:55:09.958Z,1.30
2019-02-27T23:57:58.569Z,1.30
